Startpagina
METAR-TAF:

METAR-TAF

Vliegvelden :

Lynden Pindling International Airport

Nassau, Bahama's

breedte: 25-03N, lengte: 077-28W, hoogte: 3 m

Actueel weer

Dit bericht is 9 minuten geleden gemaakt, om 16:00 UTC
Wind 16 kt uit het zuidoosten
Temperatuur 28°C
Vochtigheid 70%
Druk 1020 hPa
Zicht 10 km of meer
Gebroken wolken op 2200 ft
Gebroken wolken op 22000 ft

METAR: MYNN 201600Z 13016KT 9999 BKN022 BKN220 28/22 A3012

Tijdstip: 12:09 (16:09 UTC)

Verwachting

Dit bericht is 6 uur en het 39 minuten geleden gemaakt, om 09:30 UTC
Verwachting geldig van 20 om 12 UTC tot 21 om 12 UTC
Wind 15 kt uit het zuidzuidoosten met uitschieters tot 25 kt
Zicht 10 km of meer
Weinig wolken op 2000 ft
Verspreide wolken op 3000 ft
Gebroken wolken op 20000 ft
Kans 30% :
Tijdelijke
van 20 om 15 UTC tot 20 om 21 UTC
Zicht: 8000 m
Weinig wolken op 1500 ft, Cumulonimbus.
Gebroken wolken op 3000 ft
regenbuien

TAF: MYNN 200930Z 2012/2112 15015G25KT 9999 FEW020 SCT030 BKN200 PROB30 TEMPO 2015/2021 8000 SHRA FEW015CB BKN030

Waarnemingen en weersverwachtingen van meer dan 4000 vliegvelden (METAR en TAF).

De beschikbare stations zijn de gele en rode punten op de kaart.

Ga met uw muis naar het station om de naam te zien.

Klik dan om waarnemingen en weersverwachtingen te zien.

kaart wijzigen: klik op de groene knoppen met een zwart kruis om in te zoomen, op de groene knop met een streepje om uit te zoomen of op de groene pijlen voor aangrenzende kaarten.


METAR-TAF: